Airport Name : Lismore

Other Name : Lismore

ICAO : YLIS

IATA : LSY

FAA :

Latitude : -28.830278

Longitude : 153.26

Country : Australia

Local Date and Time : 11/21/2018 8:16:00 AM

 

TAF (Terminal Aerodrome Forecast)

 

METAR (METeorological Aerodrome Report)

YLIS 202100Z AUTO 35011KT 9999 // NCD 24/17 Q1008

YLIS 202000Z AUTO 36005KT 9999 // NCD 20/16 Q1009

YLIS 201900Z AUTO 35002KT 9999 // NCD 17/15 Q1008

YLIS 201800Z AUTO 00000KT 9999 // NCD 18/15 Q1007